Time;durP1;ratioP1;P1;durP2;ratioP2;P2;SDS_P1;SDS_P2;PMS_P1;PMS_P2;Temp;Humidity;BMP_temperature;BMP_pressure;BME280_temperature;BME280_humidity;BME280_pressure;Samples;Min_cycle;Max_cycle;Signal;HPM_P1;HPM_P2
2022/03/30 00:01:41;;;;;;;0.28;0.28;;;;;;;;;;4935133;29;20102;-96
2022/03/30 00:04:24;;;;;;;1.58;1.10;;;;;;;;;;4936043;29;20051;-96
2022/03/30 00:07:06;;;;;;;1.10;0.80;;;;;;;;;;4952808;29;20042;-93
2022/03/30 00:09:38;;;;;;;0.60;0.60;;;;;;;;;;4935077;29;20579;-94
2022/03/30 00:12:05;;;;;;;1.90;1.15;;;;;;;;;;4950221;29;20035;-96
2022/03/30 00:14:42;;;;;;;1.58;0.85;;;;;;;;;;4935452;29;20043;-96
2022/03/30 00:17:10;;;;;;;0.32;0.32;;;;;;;;;;4914966;29;20044;-95
2022/03/30 00:19:38;;;;;;;0.50;0.50;;;;;;;;;;4945875;29;20095;-95
2022/03/30 00:22:07;;;;;;;10.13;3.08;;;;;;;;;;4951492;29;20099;-95
2022/03/30 00:24:34;;;;;;;1.35;1.00;;;;;;;;;;4934712;29;20639;-96
2022/03/30 00:27:07;;;;;;;0.98;0.82;;;;;;;;;;4950783;29;20075;-94
2022/03/30 00:32:41;;;;;;;6.85;1.98;;;;;;;;;;4942102;29;20055;-95
2022/03/30 00:35:14;;;;;;;2.00;1.38;;;;;;;;;;4936285;29;20039;-95
2022/03/30 00:37:43;;;;;;;0.60;0.60;;;;;;;;;;4928775;29;20055;-96
2022/03/30 00:40:10;;;;;;;0.40;0.40;;;;;;;;;;4950232;29;20449;-95
2022/03/30 00:42:37;;;;;;;0.73;0.73;;;;;;;;;;4935511;29;20063;-95
2022/03/30 00:45:10;;;;;;;0.40;0.40;;;;;;;;;;4935713;29;20047;-95
2022/03/30 00:47:42;;;;;;;0.30;0.30;;;;;;;;;;4935750;29;20054;-95
2022/03/30 00:50:26;;;;;;;1.55;0.73;;;;;;;;;;4939191;29;20043;-96
2022/03/30 00:52:56;;;;;;;1.23;1.13;;;;;;;;;;4938672;29;20051;-96
2022/03/30 00:55:26;;;;;;;0.63;0.63;;;;;;;;;;4938158;29;20085;-95
2022/03/30 00:57:59;;;;;;;0.40;0.40;;;;;;;;;;4938483;29;20063;-95
2022/03/30 01:00:28;;;;;;;0.40;0.40;;;;;;;;;;4954385;29;20107;-96
2022/03/30 01:02:54;;;;;;;0.40;0.40;;;;;;;;;;4938379;29;20062;-94
2022/03/30 01:05:24;;;;;;;0.30;0.30;;;;;;;;;;4954689;29;20516;-93
2022/03/30 01:07:59;;;;;;;0.45;0.45;;;;;;;;;;4938963;29;20046;-96
2022/03/30 01:10:43;;;;;;;1.55;1.17;;;;;;;;;;4947965;29;20139;-96
2022/03/30 01:13:15;;;;;;;0.40;0.40;;;;;;;;;;4955116;29;20051;-96
2022/03/30 01:15:55;;;;;;;0.30;0.30;;;;;;;;;;4953957;29;20051;-94
2022/03/30 01:18:47;;;;;;;1.38;1.15;;;;;;;;;;4967742;29;20101;-96
2022/03/30 01:21:19;;;;;;;0.85;0.85;;;;;;;;;;4947875;29;20039;-95
2022/03/30 01:23:45;;;;;;;0.30;0.30;;;;;;;;;;4953899;29;20054;-95
2022/03/30 01:26:19;;;;;;;0.28;0.28;;;;;;;;;;4953892;29;20062;-96
2022/03/30 01:29:02;;;;;;;0.20;0.20;;;;;;;;;;4955064;29;20043;-96
2022/03/30 01:34:44;;;;;;;;;;;;;;;;;;;;;
2022/03/30 01:37:15;;;;;;;0.60;0.60;;;;;;;;;;4954306;29;20107;-96
2022/03/30 01:39:44;;;;;;;0.77;0.77;;;;;;;;;;4937684;29;20066;-96
2022/03/30 01:42:13;;;;;;;0.68;0.68;;;;;;;;;;4937355;29;20047;-96
2022/03/30 01:45:12;;;;;;;0.40;0.40;;;;;;;;;;4956824;29;20071;-96
2022/03/30 01:47:42;;;;;;;0.57;0.50;;;;;;;;;;4942827;29;20087;-96
2022/03/30 01:50:24;;;;;;;0.45;0.45;;;;;;;;;;4938483;29;20050;-96
2022/03/30 01:52:55;;;;;;;0.73;0.68;;;;;;;;;;4954566;29;20098;-95
2022/03/30 01:55:21;;;;;;;0.35;0.35;;;;;;;;;;4953469;29;20051;-95
2022/03/30 01:57:51;;;;;;;4.30;1.60;;;;;;;;;;4954353;29;20098;-96
2022/03/30 02:00:30;;;;;;;;;;;;;;;;;;;;;
2022/03/30 02:03:21;;;;;;;0.30;0.30;;;;;;;;;;4955022;29;20071;-95
2022/03/30 02:06:00;;;;;;;0.40;0.40;;;;;;;;;;4954675;29;20051;-95
2022/03/30 02:08:32;;;;;;;1.27;0.85;;;;;;;;;;4937741;29;20051;-95
2022/03/30 02:11:10;;;;;;;0.40;0.40;;;;;;;;;;4939326;29;20073;-94
2022/03/30 02:14:05;;;;;;;0.73;0.55;;;;;;;;;;4954277;29;20043;-96
2022/03/30 02:16:36;;;;;;;0.95;0.88;;;;;;;;;;4943819;29;20043;-93
2022/03/30 02:19:15;;;;;;;0.68;0.68;;;;;;;;;;4937463;29;20047;-95
2022/03/30 02:21:48;;;;;;;1.92;1.80;;;;;;;;;;4937566;29;20043;-92
2022/03/30 02:24:18;;;;;;;4.30;3.97;;;;;;;;;;4953267;29;20074;-93
2022/03/30 02:26:55;;;;;;;0.30;0.30;;;;;;;;;;4937901;29;20045;-94
2022/03/30 02:29:24;;;;;;;0.80;0.75;;;;;;;;;;4937160;29;20036;-95
2022/03/30 02:32:05;;;;;;;0.30;0.30;;;;;;;;;;4938201;29;20066;-96
2022/03/30 02:34:31;;;;;;;0.28;0.28;;;;;;;;;;4953519;29;20054;-96
2022/03/30 02:37:09;;;;;;;0.90;0.85;;;;;;;;;;4953750;29;20054;-96
2022/03/30 02:39:49;;;;;;;0.50;0.50;;;;;;;;;;4938421;29;20043;-96
2022/03/30 02:42:18;;;;;;;0.35;0.35;;;;;;;;;;4938123;29;20070;-96
2022/03/30 02:44:47;;;;;;;1.75;1.38;;;;;;;;;;4953447;29;20501;-95
2022/03/30 02:47:16;;;;;;;3.15;1.67;;;;;;;;;;4937469;29;20039;-95
2022/03/30 02:49:58;;;;;;;6.80;1.95;;;;;;;;;;4954082;29;20043;-93
2022/03/30 02:52:34;;;;;;;4.38;1.95;;;;;;;;;;4937567;29;20051;-94
2022/03/30 02:55:16;;;;;;;1.50;1.35;;;;;;;;;;4937778;29;20477;-94
2022/03/30 02:57:59;;;;;;;0.60;0.60;;;;;;;;;;4938741;29;20049;-95
2022/03/30 03:00:33;;;;;;;0.30;0.30;;;;;;;;;;4937892;29;20051;-95
2022/03/30 03:03:03;;;;;;;1.00;0.90;;;;;;;;;;4937041;29;20046;-95
2022/03/30 03:05:33;;;;;;;0.35;0.35;;;;;;;;;;4931009;29;20058;-96
2022/03/30 03:08:05;;;;;;;2.05;1.10;;;;;;;;;;4929294;29;20047;-95
2022/03/30 03:10:35;;;;;;;1.10;1.00;;;;;;;;;;4938290;29;20047;-95
2022/03/30 03:13:30;;;;;;;0.28;0.28;;;;;;;;;;4937568;29;20031;-94
2022/03/30 03:16:09;;;;;;;0.28;0.28;;;;;;;;;;4937485;29;20692;-95
2022/03/30 03:18:35;;;;;;;1.20;0.32;;;;;;;;;;4937696;29;20043;-95
2022/03/30 03:21:08;;;;;;;1.15;1.05;;;;;;;;;;4946916;29;20047;-95
2022/03/30 03:23:44;;;;;;;1.48;1.00;;;;;;;;;;4953993;29;20039;-94
2022/03/30 03:26:20;;;;;;;1.55;1.17;;;;;;;;;;4937768;29;20043;-95
2022/03/30 03:29:08;;;;;;;;;;;;;;;;;;;;;
2022/03/30 03:31:49;;;;;;;0.25;0.25;;;;;;;;;;4968488;29;20637;-93
2022/03/30 03:34:29;;;;;;;0.20;0.20;;;;;;;;;;4936648;29;20087;-94
2022/03/30 03:37:12;;;;;;;0.38;0.38;;;;;;;;;;4952934;29;20067;-95
2022/03/30 03:39:55;;;;;;;1.45;1.15;;;;;;;;;;4969326;29;20043;-94
2022/03/30 03:42:31;;;;;;;1.02;0.95;;;;;;;;;;4952281;29;20050;-96
2022/03/30 03:45:18;;;;;;;18.63;1.05;;;;;;;;;;4952545;29;20052;-96
2022/03/30 03:47:59;;;;;;;0.30;0.30;;;;;;;;;;4952547;29;20090;-96
2022/03/30 03:50:43;;;;;;;0.50;0.50;;;;;;;;;;4953506;29;20039;-96
2022/03/30 03:53:18;;;;;;;0.50;0.38;;;;;;;;;;4937770;29;20369;-94
2022/03/30 03:55:52;;;;;;;14.57;8.48;;;;;;;;;;4953109;29;20102;-96
2022/03/30 03:58:29;;;;;;;1.08;0.60;;;;;;;;;;4953290;29;20140;-96
2022/03/30 04:01:11;;;;;;;1.55;1.27;;;;;;;;;;4935590;29;20082;-96
2022/03/30 04:03:50;;;;;;;6.28;2.70;;;;;;;;;;4949555;29;20059;-96
2022/03/30 04:06:22;;;;;;;0.40;0.40;;;;;;;;;;4937906;29;20046;-96
2022/03/30 04:09:04;;;;;;;3.80;2.40;;;;;;;;;;4936664;29;20075;-96
2022/03/30 04:11:39;;;;;;;0.88;0.88;;;;;;;;;;4937594;29;20047;-96
2022/03/30 04:14:24;;;;;;;2.08;1.70;;;;;;;;;;4936595;29;20051;-96
2022/03/30 04:16:53;;;;;;;2.78;0.85;;;;;;;;;;4934097;29;20544;-96
2022/03/30 04:19:23;;;;;;;0.65;0.65;;;;;;;;;;4952229;29;20438;-94
2022/03/30 04:21:55;;;;;;;55.67;24.60;;;;;;;;;;4952293;29;20058;-96
2022/03/30 04:24:31;;;;;;;7.07;2.83;;;;;;;;;;4934402;29;20051;-96
2022/03/30 04:27:04;;;;;;;0.40;0.40;;;;;;;;;;4939801;29;20047;-96
2022/03/30 04:29:38;;;;;;;;;;;;;;;;;;4941295;29;20036;-95
2022/03/30 04:32:12;;;;;;;1.48;1.13;;;;;;;;;;4955914;29;19918;-95
2022/03/30 04:34:38;;;;;;;9.85;2.20;;;;;;;;;;4939857;29;20066;-96
2022/03/30 04:37:28;;;;;;;3.43;1.90;;;;;;;;;;4938435;29;20051;-96
2022/03/30 04:40:01;;;;;;;0.30;0.30;;;;;;;;;;4934517;29;20125;-96
2022/03/30 04:42:36;;;;;;;6.03;2.63;;;;;;;;;;4940652;29;20054;-96
2022/03/30 04:45:13;;;;;;;2.55;1.42;;;;;;;;;;4939964;29;20071;-96
2022/03/30 04:47:45;;;;;;;5.55;2.90;;;;;;;;;;4939889;29;20102;-96
2022/03/30 04:50:23;;;;;;;11.85;4.13;;;;;;;;;;4971847;29;20042;-95
2022/03/30 04:53:07;;;;;;;11.30;4.65;;;;;;;;;;4937874;29;20035;-95
2022/03/30 04:55:36;;;;;;;14.05;5.05;;;;;;;;;;4933792;29;20047;-96
2022/03/30 04:58:06;;;;;;;2.15;1.42;;;;;;;;;;4939412;29;20081;-96
2022/03/30 05:00:35;;;;;;;2.63;1.73;;;;;;;;;;4936905;29;20047;-95
2022/03/30 05:03:17;;;;;;;2.88;1.67;;;;;;;;;;4937113;29;20068;-96
2022/03/30 05:05:51;;;;;;;2.05;1.30;;;;;;;;;;4935472;29;20047;-95
2022/03/30 05:08:42;;;;;;;8.77;3.10;;;;;;;;;;4939400;29;20065;-96
2022/03/30 05:11:20;;;;;;;20.48;5.75;;;;;;;;;;4939539;29;20102;-96
2022/03/30 05:14:06;;;;;;;9.88;3.75;;;;;;;;;;4951877;29;20039;-95
2022/03/30 05:16:59;;;;;;;3.80;2.28;;;;;;;;;;4940327;29;20047;-96
2022/03/30 05:19:32;;;;;;;0.32;0.32;;;;;;;;;;4956697;29;20086;-96
2022/03/30 05:22:13;;;;;;;2.83;2.20;;;;;;;;;;4941641;29;20027;-96
2022/03/30 05:24:53;;;;;;;5.43;2.72;;;;;;;;;;4955655;29;20067;-95
2022/03/30 05:27:27;;;;;;;3.22;2.22;;;;;;;;;;4954357;29;20043;-96
2022/03/30 05:29:59;;;;;;;20.25;5.75;;;;;;;;;;4954457;29;20050;-96
2022/03/30 05:32:48;;;;;;;9.50;4.82;;;;;;;;;;4940882;29;20036;-96
2022/03/30 05:35:18;;;;;;;15.18;4.75;;;;;;;;;;4939215;29;20118;-96
2022/03/30 05:37:52;;;;;;;17.45;5.43;;;;;;;;;;4936789;29;20067;-96
2022/03/30 05:40:24;;;;;;;14.90;5.68;;;;;;;;;;4940458;29;20039;-96
2022/03/30 05:43:08;;;;;;;16.00;5.13;;;;;;;;;;4953004;29;20091;-96
2022/03/30 05:45:35;;;;;;;12.75;5.00;;;;;;;;;;4941192;29;20051;-96
2022/03/30 05:48:07;;;;;;;11.32;4.60;;;;;;;;;;4942734;29;20047;-96
2022/03/30 05:50:33;;;;;;;7.50;3.22;;;;;;;;;;4938463;29;20062;-95
2022/03/30 05:53:13;;;;;;;3.85;1.85;;;;;;;;;;4943852;29;20046;-96
2022/03/30 05:55:40;;;;;;;15.93;3.63;;;;;;;;;;4932222;29;20280;-96
2022/03/30 05:58:06;;;;;;;12.18;3.85;;;;;;;;;;4939083;29;20584;-95
2022/03/30 06:00:39;;;;;;;8.70;3.53;;;;;;;;;;4938288;29;20113;-95
2022/03/30 06:03:05;;;;;;;4.53;2.30;;;;;;;;;;4938411;29;20108;-96
2022/03/30 06:05:34;;;;;;;8.45;2.58;;;;;;;;;;4954104;29;20043;-95
2022/03/30 06:08:01;;;;;;;3.38;1.67;;;;;;;;;;4932722;29;20045;-96
2022/03/30 06:10:30;;;;;;;6.20;2.10;;;;;;;;;;4951762;29;20095;-96
2022/03/30 06:12:59;;;;;;;4.93;1.35;;;;;;;;;;4937229;29;20529;-96
2022/03/30 06:15:26;;;;;;;0.70;0.55;;;;;;;;;;4950552;29;20038;-95
2022/03/30 06:17:56;;;;;;;5.93;1.48;;;;;;;;;;4952448;29;20069;-94
2022/03/30 06:20:26;;;;;;;5.15;2.00;;;;;;;;;;4951926;29;20039;-95
2022/03/30 06:22:56;;;;;;;3.83;1.65;;;;;;;;;;4935593;29;20070;-96
2022/03/30 06:25:32;;;;;;;2.45;1.25;;;;;;;;;;4939022;29;20155;-96
2022/03/30 06:27:58;;;;;;;4.70;1.20;;;;;;;;;;4937523;29;20610;-92
2022/03/30 07:25:10;;;;;;;1.33;1.00;;;;;;;;;;5000632;28;20103;-94
2022/03/30 07:28:17;;;;;;;2.45;1.23;;;;;;;;;;4972002;28;20046;-92
2022/03/30 07:38:30;;;;;;;2.53;1.45;;;;;;;;;;5004887;28;20062;-91
2022/03/30 07:41:09;;;;;;;0.47;0.43;;;;;;;;;;4976406;28;20068;-94
2022/03/30 07:43:39;;;;;;;2.75;1.38;;;;;;;;;;4980868;28;20042;-96
2022/03/30 07:46:49;;;;;;;;;;;;;;;;;;;;;
2022/03/30 08:15:13;;;;;;;1.33;0.55;;;;;;;;;;4997467;28;20066;-93
2022/03/30 08:17:44;;;;;;;1.77;1.30;;;;;;;;;;4984997;28;20062;-96
2022/03/30 08:22:25;;;;;;;2.38;1.40;;;;;;;;;;4972695;28;20073;-95
2022/03/30 08:22:56;;;;;;;1.52;0.85;;;;;;;;;;4988113;28;20073;-94
2022/03/30 08:25:26;;;;;;;0.98;0.73;;;;;;;;;;4980343;28;20132;-91
2022/03/30 08:27:56;;;;;;;7.13;2.63;;;;;;;;;;4978461;28;20046;-95
2022/03/30 08:30:26;;;;;;;0.93;0.75;;;;;;;;;;4977344;28;20049;-93
2022/03/30 08:32:53;;;;;;;0.50;0.50;;;;;;;;;;4970177;28;20057;-93
2022/03/30 08:35:29;;;;;;;0.80;0.70;;;;;;;;;;4986075;28;20046;-93
2022/03/30 08:37:58;;;;;;;0.57;0.50;;;;;;;;;;4973963;28;20439;-94
2022/03/30 08:40:30;;;;;;;1.17;0.73;;;;;;;;;;4986502;28;20261;-94
2022/03/30 08:42:56;;;;;;;3.80;1.65;;;;;;;;;;4965911;28;20034;-94
2022/03/30 08:45:25;;;;;;;2.22;1.20;;;;;;;;;;4967012;28;20046;-93
2022/03/30 08:47:51;;;;;;;1.40;0.90;;;;;;;;;;4980936;28;20129;-94
2022/03/30 08:50:19;;;;;;;1.38;1.13;;;;;;;;;;4986286;28;20097;-94
2022/03/30 08:52:52;;;;;;;10.88;2.03;;;;;;;;;;4980488;28;20038;-93
2022/03/30 08:55:19;;;;;;;2.13;0.82;;;;;;;;;;4983999;28;20054;-92
2022/03/30 08:57:45;;;;;;;3.17;1.30;;;;;;;;;;4980141;28;20159;-95
2022/03/30 09:00:19;;;;;;;2.85;1.65;;;;;;;;;;4978404;28;20120;-94
2022/03/30 09:02:47;;;;;;;4.00;1.40;;;;;;;;;;4994240;28;20049;-94
2022/03/30 09:05:18;;;;;;;6.10;1.90;;;;;;;;;;4977652;28;20042;-94
2022/03/30 09:07:51;;;;;;;4.80;2.08;;;;;;;;;;4970903;28;20092;-94
2022/03/30 09:10:28;;;;;;;1.60;0.90;;;;;;;;;;4965342;28;20046;-95
2022/03/30 09:12:57;;;;;;;1.60;0.50;;;;;;;;;;4982236;28;20042;-94
2022/03/30 09:15:24;;;;;;;3.95;0.50;;;;;;;;;;4962705;28;20039;-93
2022/03/30 09:17:56;;;;;;;2.88;1.63;;;;;;;;;;4979798;28;20073;-96
2022/03/30 09:20:23;;;;;;;2.58;1.27;;;;;;;;;;4976066;28;20039;-96
2022/03/30 09:22:53;;;;;;;0.30;0.30;;;;;;;;;;4974740;28;20034;-92
2022/03/30 09:25:19;;;;;;;1.08;0.77;;;;;;;;;;4972053;28;20459;-89
2022/03/30 09:27:46;;;;;;;2.58;1.20;;;;;;;;;;4981186;28;20038;-91
2022/03/30 09:30:17;;;;;;;3.92;1.20;;;;;;;;;;4974368;28;20130;-92
2022/03/30 09:32:44;;;;;;;0.77;0.75;;;;;;;;;;4962695;28;20066;-92
2022/03/30 09:35:25;;;;;;;0.40;0.40;;;;;;;;;;4970018;28;20038;-92
2022/03/30 09:38:08;;;;;;;4.13;1.55;;;;;;;;;;4970441;28;20419;-92
2022/03/30 09:40:38;;;;;;;1.90;1.00;;;;;;;;;;4961324;28;20056;-88
2022/03/30 09:43:11;;;;;;;1.83;1.00;;;;;;;;;;4972796;28;20157;-88
2022/03/30 09:45:37;;;;;;;7.13;1.88;;;;;;;;;;4972737;28;20050;-90
2022/03/30 09:48:15;;;;;;;3.13;1.00;;;;;;;;;;4960866;28;20061;-89
2022/03/30 09:50:46;;;;;;;2.65;1.15;;;;;;;;;;4980574;28;20047;-92
2022/03/30 09:53:13;;;;;;;7.50;4.13;;;;;;;;;;4967211;28;20046;-91
2022/03/30 09:55:58;;;;;;;0.57;0.50;;;;;;;;;;4959744;28;20402;-91
2022/03/30 09:58:26;;;;;;;0.55;0.52;;;;;;;;;;4982393;28;20129;-92
2022/03/30 10:01:11;;;;;;;0.38;0.38;;;;;;;;;;4985888;28;20105;-95
2022/03/30 10:03:42;;;;;;;3.97;0.88;;;;;;;;;;4984294;28;20507;-93
2022/03/30 10:06:14;;;;;;;0.80;0.30;;;;;;;;;;4973067;28;20061;-94
2022/03/30 10:08:44;;;;;;;1.27;0.68;;;;;;;;;;4971961;28;20034;-93
2022/03/30 10:11:15;;;;;;;3.00;1.02;;;;;;;;;;4984259;28;20065;-95
2022/03/30 10:13:41;;;;;;;2.17;0.50;;;;;;;;;;4971275;28;20524;-94
2022/03/30 10:16:11;;;;;;;4.15;1.08;;;;;;;;;;4968362;28;20374;-94
2022/03/30 11:47:08;;;;;;;1.48;1.02;;;;;;;;;;4970699;28;20310;-96
2022/03/30 12:51:52;;;;;;;0.20;0.20;;;;;;;;;;4992506;28;20050;-91
2022/03/30 12:54:22;;;;;;;1.08;0.65;;;;;;;;;;4985687;28;20305;-94
2022/03/30 12:56:51;;;;;;;0.32;0.32;;;;;;;;;;4970561;28;20061;-96
2022/03/30 12:59:19;;;;;;;0.10;0.10;;;;;;;;;;4983734;28;20047;-91
2022/03/30 13:01:52;;;;;;;0.55;0.40;;;;;;;;;;4958161;28;20043;-94
2022/03/30 13:04:23;;;;;;;0.70;0.50;;;;;;;;;;4980269;28;20064;-94
2022/03/30 13:07:07;;;;;;;1.58;0.60;;;;;;;;;;4981237;28;20346;-95
2022/03/30 13:09:34;;;;;;;0.35;0.30;;;;;;;;;;4959077;28;20039;-95
2022/03/30 13:12:11;;;;;;;0.15;0.15;;;;;;;;;;4967892;28;20038;-94
2022/03/30 13:14:51;;;;;;;3.03;0.40;;;;;;;;;;4962640;28;20042;-93
2022/03/30 13:17:17;;;;;;;0.32;0.32;;;;;;;;;;4967054;28;20046;-94
2022/03/30 13:19:43;;;;;;;0.55;0.50;;;;;;;;;;4968840;28;20047;-92
2022/03/30 13:22:09;;;;;;;5.63;0.90;;;;;;;;;;4968801;28;20047;-91
2022/03/30 13:24:51;;;;;;;0.82;0.38;;;;;;;;;;4980811;28;20046;-90
2022/03/30 13:27:18;;;;;;;3.22;1.05;;;;;;;;;;4963850;28;20046;-89
2022/03/30 14:37:50;;;;;;;2.17;0.63;;;;;;;;;;5013413;28;20098;-92
2022/03/30 14:40:16;;;;;;;5.70;1.65;;;;;;;;;;4982241;28;20038;-88
2022/03/30 14:42:42;;;;;;;1.50;0.63;;;;;;;;;;4980920;28;20087;-91
2022/03/30 14:45:09;;;;;;;1.95;0.55;;;;;;;;;;4965528;28;20039;-92
2022/03/30 14:47:35;;;;;;;0.77;0.43;;;;;;;;;;4972335;28;20029;-89
2022/03/30 14:50:02;;;;;;;0.10;0.10;;;;;;;;;;4972432;28;20038;-90
2022/03/30 14:52:28;;;;;;;0.82;0.68;;;;;;;;;;4983077;28;20041;-89
2022/03/30 14:54:59;;;;;;;1.77;0.77;;;;;;;;;;4982215;28;20045;-89
2022/03/30 14:57:25;;;;;;;4.65;0.90;;;;;;;;;;4993457;28;20054;-89
2022/03/30 14:59:53;;;;;;;1.52;0.60;;;;;;;;;;4990539;28;20042;-88
2022/03/30 15:02:26;;;;;;;0.20;0.20;;;;;;;;;;4992106;28;20060;-90
2022/03/30 15:04:52;;;;;;;0.30;0.30;;;;;;;;;;4981468;28;20046;-89
2022/03/30 15:07:22;;;;;;;0.20;0.20;;;;;;;;;;4971539;28;20112;-90
2022/03/30 15:09:49;;;;;;;0.20;0.20;;;;;;;;;;4971742;28;20041;-88
2022/03/30 15:12:19;;;;;;;0.10;0.10;;;;;;;;;;4988363;28;20113;-89
2022/03/30 15:14:47;;;;;;;3.80;0.95;;;;;;;;;;4960046;28;20547;-95
2022/03/30 15:17:13;;;;;;;1.02;0.60;;;;;;;;;;4966387;28;20073;-91
2022/03/30 15:19:39;;;;;;;5.40;0.45;;;;;;;;;;4977162;28;20049;-92
2022/03/30 15:22:07;;;;;;;0.10;0.10;;;;;;;;;;4977977;28;20038;-93
2022/03/30 15:24:34;;;;;;;0.30;0.30;;;;;;;;;;4972243;28;20046;-93
2022/03/30 15:27:01;;;;;;;0.60;0.50;;;;;;;;;;4995377;28;20029;-91
2022/03/30 15:29:35;;;;;;;0.52;0.40;;;;;;;;;;4982810;28;20037;-94
2022/03/30 15:32:01;;;;;;;0.20;0.20;;;;;;;;;;4976118;28;20094;-93
2022/03/30 15:34:27;;;;;;;0.20;0.20;;;;;;;;;;4975770;28;20049;-92
2022/03/30 15:36:54;;;;;;;0.25;0.25;;;;;;;;;;5004591;28;20049;-91
2022/03/30 15:39:23;;;;;;;0.20;0.20;;;;;;;;;;4979891;28;20042;-92
2022/03/30 15:41:50;;;;;;;0.20;0.20;;;;;;;;;;4992891;28;20041;-93
2022/03/30 15:44:21;;;;;;;0.35;0.30;;;;;;;;;;4980484;28;20042;-92
2022/03/30 15:46:47;;;;;;;0.15;0.15;;;;;;;;;;4978135;28;20065;-92
2022/03/30 15:49:13;;;;;;;1.15;0.75;;;;;;;;;;4985422;28;20039;-92
2022/03/30 15:51:44;;;;;;;2.17;0.88;;;;;;;;;;4982338;28;20038;-93
2022/03/30 15:54:13;;;;;;;1.02;0.93;;;;;;;;;;5008912;28;20038;-92
2022/03/30 15:56:41;;;;;;;3.15;1.50;;;;;;;;;;4976141;28;20050;-92
2022/03/30 15:59:08;;;;;;;2.20;0.88;;;;;;;;;;4971999;28;20110;-91
2022/03/30 16:01:35;;;;;;;2.25;0.98;;;;;;;;;;4986005;28;20046;-93
2022/03/30 16:04:01;;;;;;;3.50;0.90;;;;;;;;;;4984701;28;20040;-93
2022/03/30 16:06:27;;;;;;;0.52;0.52;;;;;;;;;;4972392;28;20097;-92
2022/03/30 16:08:54;;;;;;;1.30;0.55;;;;;;;;;;4985912;28;20133;-92
2022/03/30 16:14:07;;;;;;;3.97;1.00;;;;;;;;;;4991133;28;20123;-93
2022/03/30 16:16:33;;;;;;;3.85;0.80;;;;;;;;;;4981703;28;20077;-93
2022/03/30 16:19:01;;;;;;;0.30;0.30;;;;;;;;;;4981012;28;20064;-92
2022/03/30 16:21:30;;;;;;;7.43;1.17;;;;;;;;;;4982312;28;20069;-93
2022/03/30 16:24:00;;;;;;;1.83;0.60;;;;;;;;;;4981769;28;20099;-92
2022/03/30 16:26:26;;;;;;;0.82;0.65;;;;;;;;;;4981654;28;20033;-93
2022/03/30 16:28:52;;;;;;;0.75;0.30;;;;;;;;;;4978176;28;20035;-93
2022/03/30 16:31:19;;;;;;;0.47;0.47;;;;;;;;;;4976774;28;20041;-92
2022/03/30 16:33:46;;;;;;;1.30;0.73;;;;;;;;;;4999982;28;20038;-92
2022/03/30 16:36:12;;;;;;;1.60;0.40;;;;;;;;;;4978201;28;20042;-92
2022/03/30 16:38:41;;;;;;;5.25;0.75;;;;;;;;;;4973338;28;20106;-93
2022/03/30 16:41:08;;;;;;;0.57;0.45;;;;;;;;;;4974869;28;20049;-94
2022/03/30 16:43:34;;;;;;;0.45;0.32;;;;;;;;;;4994700;28;20038;-93
2022/03/30 16:46:02;;;;;;;1.40;0.52;;;;;;;;;;4981401;28;20048;-94
2022/03/30 16:48:31;;;;;;;2.45;0.73;;;;;;;;;;4983557;28;20053;-92
2022/03/30 16:51:01;;;;;;;0.32;0.32;;;;;;;;;;4989854;28;20482;-90
2022/03/30 16:53:30;;;;;;;1.85;0.60;;;;;;;;;;4992430;28;20157;-93
2022/03/30 16:56:04;;;;;;;6.88;1.58;;;;;;;;;;4980682;28;20038;-91
2022/03/30 16:58:31;;;;;;;1.13;0.73;;;;;;;;;;4980237;28;20054;-93
2022/03/30 17:01:00;;;;;;;0.30;0.30;;;;;;;;;;4983763;28;20054;-92
2022/03/30 17:03:27;;;;;;;2.72;1.23;;;;;;;;;;4996722;28;20069;-92
2022/03/30 17:05:56;;;;;;;1.88;0.90;;;;;;;;;;4979760;28;20093;-93
2022/03/30 17:11:10;;;;;;;0.40;0.40;;;;;;;;;;4988962;28;20061;-92
2022/03/30 17:13:44;;;;;;;2.83;0.80;;;;;;;;;;4974595;28;20096;-92
2022/03/30 17:16:10;;;;;;;5.97;0.88;;;;;;;;;;4995759;28;20057;-93
2022/03/30 17:18:37;;;;;;;1.70;0.70;;;;;;;;;;4981557;28;20062;-93
2022/03/30 17:21:06;;;;;;;2.88;0.80;;;;;;;;;;4979422;28;20049;-93
2022/03/30 17:23:36;;;;;;;3.20;0.68;;;;;;;;;;4978354;28;20097;-93
2022/03/30 17:26:02;;;;;;;4.05;0.65;;;;;;;;;;4996039;28;20048;-93
2022/03/30 17:28:32;;;;;;;0.52;0.40;;;;;;;;;;4980769;28;20034;-92
2022/03/30 17:31:01;;;;;;;1.02;0.50;;;;;;;;;;4974845;28;20475;-93
2022/03/30 17:33:28;;;;;;;0.50;0.50;;;;;;;;;;4978252;28;20038;-93
2022/03/30 17:35:54;;;;;;;1.23;0.70;;;;;;;;;;4993518;28;20038;-93
2022/03/30 17:38:21;;;;;;;4.38;0.77;;;;;;;;;;4994786;28;20038;-93
2022/03/30 17:40:47;;;;;;;5.18;1.15;;;;;;;;;;4997981;28;20065;-93
2022/03/30 17:43:15;;;;;;;4.63;1.30;;;;;;;;;;4978195;28;20042;-93
2022/03/30 17:45:41;;;;;;;6.75;1.80;;;;;;;;;;4986805;28;20042;-92
2022/03/30 17:53:43;;;;;;;2.78;1.10;;;;;;;;;;4989891;28;20046;-93
2022/03/30 17:56:10;;;;;;;1.35;0.93;;;;;;;;;;4982590;28;20084;-93
2022/03/30 17:58:36;;;;;;;0.65;0.55;;;;;;;;;;4979496;28;20043;-93
2022/03/30 18:01:04;;;;;;;8.63;1.00;;;;;;;;;;4997897;28;20035;-93
2022/03/30 18:03:31;;;;;;;1.52;0.85;;;;;;;;;;4988414;28;20045;-92
2022/03/30 18:05:58;;;;;;;0.90;0.65;;;;;;;;;;4975231;28;20038;-92
2022/03/30 18:08:24;;;;;;;1.75;0.80;;;;;;;;;;4986563;28;20089;-92
2022/03/30 18:10:51;;;;;;;4.40;0.98;;;;;;;;;;4999816;28;20124;-92
2022/03/30 18:13:17;;;;;;;9.23;1.23;;;;;;;;;;4998998;28;20089;-93
2022/03/30 18:15:44;;;;;;;0.82;0.80;;;;;;;;;;4973265;28;20127;-93
2022/03/30 18:18:13;;;;;;;1.45;0.73;;;;;;;;;;4979475;28;20050;-92
2022/03/30 18:20:43;;;;;;;1.50;0.88;;;;;;;;;;5002554;28;20065;-93
2022/03/30 18:23:10;;;;;;;4.65;0.90;;;;;;;;;;4984371;28;20052;-92
2022/03/30 18:25:37;;;;;;;2.58;1.13;;;;;;;;;;4979182;28;20051;-92
2022/03/30 18:28:07;;;;;;;0.70;0.60;;;;;;;;;;4984380;28;20046;-88
2022/03/30 18:30:34;;;;;;;2.83;0.93;;;;;;;;;;4978653;28;20034;-94
2022/03/30 18:33:01;;;;;;;7.45;1.27;;;;;;;;;;4973107;28;20065;-94
2022/03/30 18:35:28;;;;;;;3.15;1.27;;;;;;;;;;4972515;28;20042;-93
2022/03/30 18:37:54;;;;;;;1.65;0.82;;;;;;;;;;4954240;28;20038;-93
2022/03/30 18:40:20;;;;;;;1.77;0.82;;;;;;;;;;4972949;28;20057;-93
2022/03/30 18:42:47;;;;;;;6.43;2.10;;;;;;;;;;4972804;28;20113;-92
2022/03/30 18:45:13;;;;;;;0.85;0.55;;;;;;;;;;4986831;28;20046;-92
2022/03/30 18:47:39;;;;;;;3.45;1.45;;;;;;;;;;4979207;28;20049;-92
2022/03/30 18:50:08;;;;;;;2.83;1.30;;;;;;;;;;4987216;28;20034;-93
2022/03/30 18:52:39;;;;;;;5.18;1.55;;;;;;;;;;4967038;28;20034;-92
2022/03/30 18:55:06;;;;;;;3.78;1.42;;;;;;;;;;4987276;28;20046;-93
2022/03/30 18:57:34;;;;;;;1.98;0.95;;;;;;;;;;4988808;28;20082;-93
2022/03/30 19:00:00;;;;;;;2.67;1.20;;;;;;;;;;4973105;28;20050;-92
2022/03/30 19:02:27;;;;;;;4.60;1.80;;;;;;;;;;4961480;28;20058;-93
2022/03/30 19:04:53;;;;;;;4.70;1.95;;;;;;;;;;4983888;28;20104;-92
2022/03/30 19:07:22;;;;;;;4.32;1.17;;;;;;;;;;4973717;28;20066;-93
2022/03/30 19:09:48;;;;;;;3.22;1.23;;;;;;;;;;4977420;28;20062;-93
2022/03/30 19:12:15;;;;;;;3.35;1.23;;;;;;;;;;4981635;28;20030;-94
2022/03/30 19:14:42;;;;;;;4.65;1.30;;;;;;;;;;4976633;28;20049;-92
2022/03/30 19:17:08;;;;;;;2.42;1.00;;;;;;;;;;4984597;28;20090;-92
2022/03/30 19:19:34;;;;;;;3.33;0.90;;;;;;;;;;4981437;28;20077;-94
2022/03/30 19:22:03;;;;;;;2.80;0.88;;;;;;;;;;4974079;28;20050;-94
2022/03/30 19:24:29;;;;;;;4.50;1.13;;;;;;;;;;4986974;28;20042;-93
2022/03/30 19:26:55;;;;;;;6.03;1.10;;;;;;;;;;4973049;28;20038;-92
2022/03/30 19:29:23;;;;;;;3.95;1.05;;;;;;;;;;4972219;28;20040;-94
2022/03/30 19:31:49;;;;;;;9.50;1.65;;;;;;;;;;4985884;28;20034;-94
2022/03/30 19:34:15;;;;;;;4.00;1.10;;;;;;;;;;4976778;28;20042;-93
2022/03/30 19:36:42;;;;;;;2.75;1.10;;;;;;;;;;4973789;28;20066;-93
2022/03/30 19:39:08;;;;;;;1.73;1.02;;;;;;;;;;4976015;28;20046;-94
2022/03/30 19:41:37;;;;;;;2.13;0.80;;;;;;;;;;4980586;28;20065;-95
2022/03/30 19:44:04;;;;;;;4.13;1.05;;;;;;;;;;4980801;28;20042;-94
2022/03/30 19:46:30;;;;;;;6.65;1.33;;;;;;;;;;4979430;28;20121;-96
2022/03/30 19:49:02;;;;;;;0.95;0.70;;;;;;;;;;4975270;28;20042;-96
2022/03/30 19:51:29;;;;;;;1.55;0.95;;;;;;;;;;4996412;28;20034;-95
2022/03/30 19:53:58;;;;;;;1.27;0.90;;;;;;;;;;4977803;28;20355;-96
2022/03/30 19:56:27;;;;;;;2.38;0.70;;;;;;;;;;4977250;28;20045;-95
2022/03/30 19:58:53;;;;;;;0.77;0.73;;;;;;;;;;4975694;28;20067;-94
2022/03/30 20:01:20;;;;;;;1.52;0.52;;;;;;;;;;4977876;28;20050;-93
2022/03/30 20:03:47;;;;;;;1.08;0.57;;;;;;;;;;4975787;28;20050;-93
2022/03/30 20:06:20;;;;;;;5.57;1.23;;;;;;;;;;4975438;28;20069;-95
2022/03/30 20:08:52;;;;;;;1.58;0.80;;;;;;;;;;4965666;28;20042;-95
2022/03/30 20:11:18;;;;;;;2.83;0.93;;;;;;;;;;4978616;28;20046;-95
2022/03/30 20:13:47;;;;;;;0.80;0.57;;;;;;;;;;4983375;28;20038;-94
2022/03/30 20:16:15;;;;;;;4.13;1.15;;;;;;;;;;4981947;28;20397;-96
2022/03/30 20:18:41;;;;;;;0.65;0.65;;;;;;;;;;4994571;28;20054;-96
2022/03/30 20:21:22;;;;;;;0.38;0.38;;;;;;;;;;4983884;28;20078;-96
2022/03/30 20:24:00;;;;;;;;;;;;;;;;;;;;;
2022/03/30 20:26:34;;;;;;;0.30;0.30;;;;;;;;;;5002391;28;20012;-95
2022/03/30 20:29:01;;;;;;;2.55;0.60;;;;;;;;;;4971879;28;20054;-95
2022/03/30 20:31:48;;;;;;;4.43;1.05;;;;;;;;;;4990434;28;20057;-94
2022/03/30 20:34:40;;;;;;;5.22;1.90;;;;;;;;;;5008227;28;20050;-95
2022/03/30 20:37:09;;;;;;;3.70;1.00;;;;;;;;;;5017574;28;20074;-95
2022/03/30 20:39:36;;;;;;;5.40;1.15;;;;;;;;;;5011444;28;20381;-95